createdAt,value
2023-01-20T00:00:06.291Z,96.41
2023-01-20T00:01:06.292Z,96.51
2023-01-20T00:02:06.286Z,96.41
2023-01-20T00:03:06.264Z,96.20
2023-01-20T00:04:06.258Z,96.20
2023-01-20T00:05:06.258Z,96.20
2023-01-20T00:06:06.221Z,96.31
2023-01-20T00:07:06.229Z,96.41
2023-01-20T00:08:06.193Z,96.41
2023-01-20T00:09:06.192Z,96.10
2023-01-20T00:10:06.172Z,95.78
2023-01-20T00:11:06.156Z,95.68
2023-01-20T00:12:06.149Z,95.57
2023-01-20T00:13:06.137Z,95.26
2023-01-20T00:14:06.123Z,95.26
2023-01-20T00:15:06.097Z,95.15
2023-01-20T00:16:06.183Z,95.15
2023-01-20T00:17:06.072Z,95.26
2023-01-20T00:18:06.058Z,95.51
2023-01-20T00:19:06.060Z,95.83
2023-01-20T00:20:06.038Z,96.10
2023-01-20T00:21:06.045Z,96.45
2023-01-20T00:22:06.033Z,96.67
2023-01-20T00:23:06.019Z,96.83
2023-01-20T00:24:05.989Z,96.73
2023-01-20T00:25:05.977Z,96.83
2023-01-20T00:26:05.959Z,96.62
2023-01-20T00:27:05.948Z,96.41
2023-01-20T00:28:05.934Z,96.51
2023-01-20T00:29:05.942Z,96.67
2023-01-20T00:30:05.912Z,96.77
2023-01-20T00:31:05.950Z,96.77
2023-01-20T00:32:05.875Z,96.67
2023-01-20T00:33:05.871Z,96.67
2023-01-20T00:34:05.862Z,96.67
2023-01-20T00:35:05.850Z,96.67
2023-01-20T00:36:05.835Z,96.77
2023-01-20T00:37:05.843Z,96.88
2023-01-20T00:38:05.810Z,96.98
2023-01-20T00:39:05.793Z,97.19
2023-01-20T00:40:05.781Z,97.19
2023-01-20T00:41:05.771Z,97.09
2023-01-20T00:42:05.748Z,96.98
2023-01-20T00:43:05.738Z,96.88
2023-01-20T00:44:05.731Z,96.88
2023-01-20T00:45:05.721Z,96.88
2023-01-20T00:46:05.712Z,96.98
2023-01-20T00:47:05.685Z,96.88
2023-01-20T00:48:05.672Z,96.77
2023-01-20T00:49:05.673Z,96.88
2023-01-20T00:50:05.648Z,97.09
2023-01-20T00:51:05.659Z,97.09
2023-01-20T00:52:05.621Z,97.09
2023-01-20T00:53:05.657Z,96.88
2023-01-20T00:54:05.594Z,96.88
2023-01-20T00:55:05.585Z,96.94
2023-01-20T00:56:05.581Z,96.73
2023-01-20T00:57:05.557Z,96.14
2023-01-20T00:58:05.551Z,95.51
2023-01-20T00:59:05.541Z,95.62
2023-01-20T01:00:05.528Z,95.68
2023-01-20T01:01:05.604Z,95.99
2023-01-20T01:02:05.590Z,96.14
2023-01-20T01:03:05.476Z,96.31
2023-01-20T01:04:05.466Z,96.51
2023-01-20T01:05:05.457Z,96.51
2023-01-20T01:06:05.448Z,96.20
2023-01-20T01:07:05.431Z,95.99
2023-01-20T01:08:05.421Z,95.89
2023-01-20T01:09:05.424Z,95.93
2023-01-20T01:10:05.398Z,95.93
2023-01-20T01:11:05.385Z,96.14
2023-01-20T01:12:05.375Z,96.31
2023-01-20T01:13:05.369Z,96.35
2023-01-20T01:14:05.341Z,96.20
2023-01-20T01:15:05.322Z,96.10
2023-01-20T01:16:05.405Z,95.99
2023-01-20T01:17:05.304Z,95.99
2023-01-20T01:18:05.312Z,95.99
2023-01-20T01:19:05.281Z,96.10
2023-01-20T01:20:05.260Z,96.20
2023-01-20T01:21:05.250Z,96.20
2023-01-20T01:22:05.237Z,96.20
2023-01-20T01:23:05.224Z,96.20
2023-01-20T01:24:05.204Z,96.20
2023-01-20T01:25:05.225Z,96.20
2023-01-20T01:26:05.180Z,96.20
2023-01-20T01:27:05.167Z,96.20
2023-01-20T01:28:05.162Z,96.31
2023-01-20T01:29:05.147Z,96.20
2023-01-20T01:30:05.131Z,96.20
2023-01-20T01:31:05.191Z,95.89
2023-01-20T01:32:05.104Z,95.78
2023-01-20T01:33:05.088Z,95.93
2023-01-20T01:34:05.084Z,96.25
2023-01-20T01:35:05.061Z,96.45
2023-01-20T01:36:05.065Z,96.51
2023-01-20T01:37:05.036Z,96.51
2023-01-20T01:38:05.030Z,96.31
2023-01-20T01:39:05.022Z,96.10
2023-01-20T01:40:05.027Z,95.99
2023-01-20T01:41:05.042Z,95.99
2023-01-20T01:42:04.980Z,95.68
2023-01-20T01:43:04.968Z,95.47
2023-01-20T01:44:04.969Z,95.36
2023-01-20T01:45:04.933Z,95.57
2023-01-20T01:46:04.965Z,95.68
2023-01-20T01:47:04.918Z,95.89
2023-01-20T01:48:04.900Z,95.78
2023-01-20T01:49:04.886Z,95.57
2023-01-20T01:50:04.875Z,95.62
2023-01-20T01:51:04.875Z,95.93
2023-01-20T01:52:04.849Z,96.10
2023-01-20T01:53:04.849Z,96.20
2023-01-20T01:54:04.818Z,96.20
2023-01-20T01:55:04.811Z,96.20
2023-01-20T01:56:04.802Z,96.20
2023-01-20T01:57:04.810Z,95.78
2023-01-20T01:58:04.767Z,95.47
2023-01-20T01:59:04.754Z,95.36
2023-01-20T02:00:04.737Z,95.47
2023-01-20T02:01:04.869Z,95.47
2023-01-20T02:02:04.848Z,95.57
2023-01-20T02:03:04.707Z,95.68
2023-01-20T02:04:04.705Z,95.68
2023-01-20T02:05:04.686Z,95.57
2023-01-20T02:06:04.659Z,95.78
2023-01-20T02:07:04.666Z,95.78
2023-01-20T02:08:04.645Z,95.99
2023-01-20T02:09:04.626Z,95.99
2023-01-20T02:10:04.610Z,95.99
2023-01-20T02:11:04.611Z,95.99
2023-01-20T02:12:04.581Z,95.89
2023-01-20T02:13:04.603Z,95.36
2023-01-20T02:14:04.565Z,94.98
2023-01-20T02:15:04.546Z,95.04
2023-01-20T02:16:04.602Z,95.26
2023-01-20T02:17:04.529Z,95.51
2023-01-20T02:18:04.515Z,95.68
2023-01-20T02:19:04.500Z,95.78
2023-01-20T02:20:04.478Z,95.68
2023-01-20T02:21:04.476Z,95.57
2023-01-20T02:22:04.494Z,95.78
2023-01-20T02:23:04.448Z,95.99
2023-01-20T02:24:04.464Z,95.89
2023-01-20T02:25:04.421Z,95.72
2023-01-20T02:26:04.418Z,95.57
2023-01-20T02:27:04.387Z,95.57
2023-01-20T02:28:04.374Z,95.62
2023-01-20T02:29:04.388Z,95.62
2023-01-20T02:30:04.360Z,95.62
2023-01-20T02:31:04.341Z,95.72
2023-01-20T02:32:04.327Z,95.78
2023-01-20T02:33:04.320Z,95.72
2023-01-20T02:34:04.313Z,95.93
2023-01-20T02:35:04.289Z,96.14
2023-01-20T02:36:04.274Z,96.29
2023-01-20T02:37:04.262Z,96.35
2023-01-20T02:38:04.258Z,96.35
2023-01-20T02:39:04.276Z,96.50
2023-01-20T02:40:04.233Z,96.67
2023-01-20T02:41:04.211Z,96.77
2023-01-20T02:42:04.212Z,96.77
2023-01-20T02:43:04.196Z,96.67
2023-01-20T02:44:04.177Z,96.56
2023-01-20T02:45:04.190Z,96.56
2023-01-20T02:46:04.241Z,96.45
2023-01-20T02:47:04.136Z,96.56
2023-01-20T02:48:04.125Z,96.56
2023-01-20T02:49:04.114Z,96.45
2023-01-20T02:50:04.102Z,96.45
2023-01-20T02:51:04.087Z,96.25
2023-01-20T02:52:04.073Z,96.25
2023-01-20T02:53:04.053Z,96.25
2023-01-20T02:54:04.052Z,96.45
2023-01-20T02:55:04.032Z,96.35
2023-01-20T02:56:04.014Z,96.25
2023-01-20T02:57:04.011Z,96.14
2023-01-20T02:58:03.994Z,95.93
2023-01-20T02:59:03.976Z,95.62
2023-01-20T03:00:03.982Z,94.98
2023-01-20T03:01:04.110Z,94.46
2023-01-20T03:02:04.035Z,94.25
2023-01-20T03:03:03.923Z,94.35
2023-01-20T03:04:04.020Z,94.50
2023-01-20T03:05:03.904Z,94.78
2023-01-20T03:06:03.967Z,95.09
2023-01-20T03:07:03.886Z,95.20
2023-01-20T03:08:03.859Z,95.34
2023-01-20T03:09:03.851Z,95.45
2023-01-20T03:10:03.832Z,95.55
2023-01-20T03:11:03.832Z,95.72
2023-01-20T03:12:03.805Z,95.55
2023-01-20T03:13:03.804Z,95.24
2023-01-20T03:14:03.789Z,95.34
2023-01-20T03:15:03.776Z,95.34
2023-01-20T03:16:03.762Z,95.24
2023-01-20T03:17:03.768Z,95.34
2023-01-20T03:18:03.735Z,95.34
2023-01-20T03:19:03.716Z,95.45
2023-01-20T03:20:03.705Z,95.76
2023-01-20T03:21:03.713Z,95.87
2023-01-20T03:22:03.689Z,95.83
2023-01-20T03:23:03.671Z,95.83
2023-01-20T03:24:03.658Z,96.03
2023-01-20T03:25:03.658Z,96.03
2023-01-20T03:26:03.633Z,95.83
2023-01-20T03:27:03.619Z,95.72
2023-01-20T03:28:03.604Z,95.62
2023-01-20T03:29:03.593Z,95.51
2023-01-20T03:30:03.576Z,95.51
2023-01-20T03:31:03.695Z,95.62
2023-01-20T03:32:03.571Z,95.72
2023-01-20T03:33:03.567Z,95.51
2023-01-20T03:34:03.549Z,95.30
2023-01-20T03:35:03.508Z,95.20
2023-01-20T03:36:03.506Z,95.09
2023-01-20T03:37:03.482Z,94.67
2023-01-20T03:38:03.470Z,94.14
2023-01-20T03:39:03.466Z,93.83
2023-01-20T03:40:03.450Z,93.76
2023-01-20T03:41:03.442Z,93.66
2023-01-20T03:42:03.424Z,93.76
2023-01-20T03:43:03.414Z,93.83
2023-01-20T03:44:03.396Z,93.76
2023-01-20T03:45:03.386Z,93.66
2023-01-20T03:46:03.392Z,93.66
2023-01-20T03:47:03.360Z,93.55
2023-01-20T03:48:03.374Z,93.76
2023-01-20T03:49:03.361Z,93.76
2023-01-20T03:50:03.316Z,93.87
2023-01-20T03:51:03.311Z,94.08
2023-01-20T03:52:03.311Z,94.40
2023-01-20T03:53:03.287Z,94.50
2023-01-20T03:54:03.272Z,94.40
2023-01-20T03:55:03.268Z,94.40
2023-01-20T03:56:03.249Z,94.50
2023-01-20T03:57:03.250Z,94.67
2023-01-20T03:58:03.226Z,94.78
2023-01-20T03:59:03.217Z,94.78
2023-01-20T04:00:03.202Z,94.56
2023-01-20T04:01:03.287Z,94.35
2023-01-20T04:02:03.286Z,94.25
2023-01-20T04:03:03.231Z,94.25
2023-01-20T04:04:03.151Z,94.25
2023-01-20T04:05:03.154Z,93.93
2023-01-20T04:06:03.119Z,93.76
2023-01-20T04:07:03.096Z,93.51
2023-01-20T04:08:03.085Z,93.55
2023-01-20T04:09:03.083Z,93.76
2023-01-20T04:10:03.071Z,93.66
2023-01-20T04:11:03.049Z,93.87
2023-01-20T04:12:03.037Z,94.08
2023-01-20T04:13:03.040Z,94.08
2023-01-20T04:14:03.008Z,94.35
2023-01-20T04:15:02.995Z,94.71
2023-01-20T04:16:03.067Z,94.67
2023-01-20T04:17:02.966Z,94.40
2023-01-20T04:18:02.952Z,94.29
2023-01-20T04:19:02.966Z,94.29
2023-01-20T04:20:02.937Z,94.60
2023-01-20T04:21:02.951Z,94.88
2023-01-20T04:22:02.908Z,94.98
2023-01-20T04:23:02.891Z,94.60
2023-01-20T04:24:02.875Z,94.50
2023-01-20T04:25:02.879Z,94.60
2023-01-20T04:26:02.848Z,94.50
2023-01-20T04:27:02.844Z,94.60
2023-01-20T04:28:02.822Z,94.71
2023-01-20T04:29:02.817Z,94.82
2023-01-20T04:30:02.816Z,94.71
2023-01-20T04:31:02.925Z,94.71
2023-01-20T04:32:02.903Z,94.40
2023-01-20T04:33:02.768Z,94.18
2023-01-20T04:34:02.753Z,94.40
2023-01-20T04:35:02.749Z,94.60
2023-01-20T04:36:02.722Z,94.67
2023-01-20T04:37:02.729Z,94.60
2023-01-20T04:38:02.693Z,94.50
2023-01-20T04:39:02.693Z,94.60
2023-01-20T04:40:02.672Z,94.71
2023-01-20T04:41:03.674Z,94.71
2023-01-20T04:42:02.647Z,94.40
2023-01-20T04:43:02.633Z,94.29
2023-01-20T04:44:02.627Z,94.40
2023-01-20T04:45:02.600Z,94.71
2023-01-20T04:46:02.637Z,94.92
2023-01-20T04:47:02.582Z,95.13
2023-01-20T04:48:02.563Z,95.03
2023-01-20T04:49:02.561Z,95.03
2023-01-20T04:50:02.537Z,95.13
2023-01-20T04:51:02.526Z,95.13
2023-01-20T04:52:02.531Z,95.13
2023-01-20T04:53:02.524Z,95.03
2023-01-20T04:54:02.495Z,94.92
2023-01-20T04:55:02.470Z,94.71
2023-01-20T04:56:02.465Z,94.82
2023-01-20T04:57:02.445Z,94.92
2023-01-20T04:58:02.433Z,94.29
2023-01-20T04:59:02.426Z,93.45
2023-01-20T05:00:02.433Z,93.34
2023-01-20T05:01:02.413Z,93.45
2023-01-20T05:02:02.520Z,93.34
2023-01-20T05:03:02.472Z,93.24
2023-01-20T05:04:02.356Z,93.24
2023-01-20T05:05:02.376Z,93.34
2023-01-20T05:06:02.335Z,93.49
2023-01-20T05:07:02.336Z,93.49
2023-01-20T05:08:02.312Z,93.49
2023-01-20T05:09:02.315Z,93.70
2023-01-20T05:10:02.284Z,93.60
2023-01-20T05:11:02.264Z,93.85
2023-01-20T05:12:02.271Z,94.12
2023-01-20T05:13:02.253Z,94.02
2023-01-20T05:14:02.232Z,93.85
2023-01-20T05:15:02.219Z,93.85
2023-01-20T05:16:03.218Z,93.64
2023-01-20T05:17:02.190Z,93.64
2023-01-20T05:18:02.182Z,93.64
2023-01-20T05:19:02.174Z,93.85
2023-01-20T05:20:02.148Z,94.10
2023-01-20T05:21:02.134Z,94.27
2023-01-20T05:22:02.134Z,94.42
2023-01-20T05:23:02.114Z,94.42
2023-01-20T05:24:02.096Z,94.31
2023-01-20T05:25:02.111Z,94.31
2023-01-20T05:26:02.084Z,94.25
2023-01-20T05:27:02.065Z,94.04
2023-01-20T05:28:02.053Z,93.99
2023-01-20T05:29:02.031Z,93.93
2023-01-20T05:30:02.027Z,93.93
2023-01-20T05:31:02.124Z,94.15
2023-01-20T05:32:01.998Z,94.15
2023-01-20T05:33:01.989Z,93.93
2023-01-20T05:34:01.973Z,93.83
2023-01-20T05:35:01.956Z,93.83
2023-01-20T05:36:01.943Z,93.83
2023-01-20T05:37:01.936Z,93.83
2023-01-20T05:38:01.923Z,93.93
2023-01-20T05:39:01.901Z,94.04
2023-01-20T05:40:01.895Z,94.25
2023-01-20T05:41:01.905Z,94.35
2023-01-20T05:42:01.875Z,94.35
2023-01-20T05:43:01.846Z,94.15
2023-01-20T05:44:01.836Z,93.93
2023-01-20T05:45:01.832Z,93.73
2023-01-20T05:46:01.884Z,93.77
2023-01-20T05:47:01.795Z,93.77
2023-01-20T05:48:01.783Z,93.98
2023-01-20T05:49:01.778Z,94.08
2023-01-20T05:50:01.784Z,94.19
2023-01-20T05:51:01.747Z,94.29
2023-01-20T05:52:01.740Z,94.40
2023-01-20T05:53:01.748Z,94.51
2023-01-20T05:54:01.713Z,94.71
2023-01-20T05:55:01.703Z,94.93
2023-01-20T05:56:01.693Z,95.03
2023-01-20T05:57:01.722Z,94.93
2023-01-20T05:58:01.654Z,94.61
2023-01-20T05:59:01.649Z,94.40
2023-01-20T06:00:01.623Z,94.40
2023-01-20T06:01:01.647Z,94.51
2023-01-20T06:02:01.596Z,94.65
2023-01-20T06:03:01.673Z,94.51
2023-01-20T06:04:01.671Z,94.55
2023-01-20T06:05:01.593Z,94.65
2023-01-20T06:06:01.554Z,95.07
2023-01-20T06:07:01.541Z,95.07
2023-01-20T06:08:01.583Z,95.07
2023-01-20T06:09:01.544Z,95.07
2023-01-20T06:10:01.530Z,94.97
2023-01-20T06:11:01.484Z,94.97
2023-01-20T06:12:01.492Z,95.07
2023-01-20T06:13:01.518Z,95.18
2023-01-20T06:14:01.441Z,95.39
2023-01-20T06:15:01.426Z,95.60
2023-01-20T06:16:01.453Z,95.75
2023-01-20T06:17:01.412Z,95.71
2023-01-20T06:18:01.394Z,95.71
2023-01-20T06:19:01.379Z,95.86
2023-01-20T06:20:01.370Z,95.92
2023-01-20T06:21:01.357Z,95.81
2023-01-20T06:22:01.353Z,95.81
2023-01-20T06:23:01.323Z,95.67
2023-01-20T06:24:01.309Z,95.39
2023-01-20T06:25:01.294Z,95.39
2023-01-20T06:26:01.289Z,95.18
2023-01-20T06:27:01.287Z,95.29
2023-01-20T06:28:01.258Z,95.29
2023-01-20T06:29:01.276Z,95.29
2023-01-20T06:30:01.243Z,95.29
2023-01-20T06:31:01.400Z,95.39
2023-01-20T06:32:01.242Z,95.71
2023-01-20T06:33:01.196Z,95.92
2023-01-20T06:34:01.177Z,95.92
2023-01-20T06:35:01.170Z,95.92
2023-01-20T06:36:01.167Z,96.03
2023-01-20T06:37:01.148Z,95.92
2023-01-20T06:38:01.134Z,95.92
2023-01-20T06:39:01.133Z,95.87
2023-01-20T06:40:01.105Z,95.67
2023-01-20T06:41:01.097Z,95.56
2023-01-20T06:42:01.135Z,95.45
2023-01-20T06:43:01.096Z,95.35
2023-01-20T06:44:01.072Z,95.24
2023-01-20T06:45:01.070Z,95.24
2023-01-20T06:46:01.028Z,95.24
2023-01-20T06:47:01.007Z,95.35
2023-01-20T06:48:01.002Z,95.67
2023-01-20T06:49:00.988Z,95.77
2023-01-20T06:50:00.971Z,95.87
2023-01-20T06:51:00.961Z,95.73
2023-01-20T06:52:00.949Z,95.51
2023-01-20T06:53:00.937Z,95.24
2023-01-20T06:54:00.930Z,95.14
2023-01-20T06:55:00.910Z,95.03
2023-01-20T06:56:00.916Z,95.24
2023-01-20T06:57:00.884Z,95.24
2023-01-20T06:58:00.868Z,95.14
2023-01-20T06:59:00.853Z,95.14
2023-01-20T07:00:00.864Z,95.03
2023-01-20T07:01:00.977Z,95.09
2023-01-20T07:02:01.015Z,95.09
2023-01-20T07:03:00.808Z,94.89
2023-01-20T07:04:00.797Z,94.99
2023-01-20T07:05:00.778Z,94.99
2023-01-20T07:06:00.779Z,94.99
2023-01-20T07:07:00.770Z,95.14
2023-01-20T07:08:00.734Z,95.24
2023-01-20T07:09:00.736Z,95.24
2023-01-20T07:10:00.721Z,95.24
2023-01-20T07:11:00.708Z,95.14
2023-01-20T07:12:00.686Z,95.35
2023-01-20T07:13:00.675Z,95.67
2023-01-20T07:14:00.673Z,95.56
2023-01-20T07:15:00.645Z,95.35
2023-01-20T07:16:00.743Z,95.14
2023-01-20T07:17:00.643Z,95.24
2023-01-20T07:18:00.607Z,95.67
2023-01-20T07:19:00.586Z,95.83
2023-01-20T07:20:00.573Z,95.94
2023-01-20T07:21:00.598Z,96.04
2023-01-20T07:22:00.554Z,95.83
2023-01-20T07:23:00.539Z,95.51
2023-01-20T07:24:00.549Z,95.09
2023-01-20T07:25:00.510Z,94.89
2023-01-20T07:26:00.498Z,94.89
2023-01-20T07:27:00.485Z,94.46
2023-01-20T07:28:00.524Z,94.46
2023-01-20T07:29:00.491Z,94.67
2023-01-20T07:30:00.450Z,94.78
2023-01-20T07:31:00.481Z,94.89
2023-01-20T07:32:00.466Z,94.84
2023-01-20T07:33:00.430Z,94.84
2023-01-20T07:34:00.420Z,94.73
2023-01-20T07:35:00.397Z,94.73
2023-01-20T07:36:00.395Z,94.63
2023-01-20T07:37:00.367Z,94.84
2023-01-20T07:38:00.341Z,94.84
2023-01-20T07:39:00.340Z,95.05
2023-01-20T07:40:00.319Z,95.15
2023-01-20T07:41:00.309Z,95.15
2023-01-20T07:42:00.288Z,95.01
2023-01-20T07:43:00.283Z,94.84
2023-01-20T07:44:00.259Z,94.69
2023-01-20T07:45:00.278Z,94.69
2023-01-20T07:46:00.283Z,94.69
2023-01-20T07:47:00.226Z,94.80
2023-01-20T07:48:00.225Z,95.01
2023-01-20T07:49:00.229Z,95.01
2023-01-20T07:50:00.180Z,94.80
2023-01-20T07:51:00.173Z,94.59
2023-01-20T07:52:00.163Z,94.80
2023-01-20T07:53:00.146Z,95.11
2023-01-20T07:54:00.135Z,95.22
2023-01-20T07:55:00.149Z,94.96
2023-01-20T07:56:00.115Z,94.76
2023-01-20T07:57:00.116Z,94.54
2023-01-20T07:58:00.110Z,94.54
2023-01-20T07:59:00.116Z,94.34
2023-01-20T08:00:00.066Z,94.02
2023-01-20T08:01:00.147Z,94.12
2023-01-20T08:02:00.117Z,94.12
2023-01-20T08:03:00.012Z,93.80
2023-01-20T08:04:00.007Z,93.74
2023-01-20T08:05:00.140Z,93.85
2023-01-20T08:05:59.980Z,94.02
2023-01-20T08:06:59.970Z,94.23
2023-01-20T08:07:59.947Z,94.44
2023-01-20T08:08:59.950Z,94.76
2023-01-20T08:09:59.938Z,95.07
2023-01-20T08:10:59.937Z,94.92
2023-01-20T08:11:59.916Z,94.65
2023-01-20T08:12:59.890Z,94.65
2023-01-20T08:13:59.871Z,94.96
2023-01-20T08:14:59.855Z,94.86
2023-01-20T08:15:59.844Z,94.82
2023-01-20T08:16:59.892Z,94.82
2023-01-20T08:17:59.834Z,94.71
2023-01-20T08:18:59.815Z,94.60
2023-01-20T08:19:59.800Z,94.82
2023-01-20T08:20:59.814Z,94.82
2023-01-20T08:21:59.801Z,94.60
2023-01-20T08:22:59.751Z,94.40
2023-01-20T08:23:59.739Z,94.35
2023-01-20T08:24:59.724Z,94.35
2023-01-20T08:25:59.724Z,94.25
2023-01-20T08:26:59.706Z,94.25
2023-01-20T08:27:59.699Z,94.25
2023-01-20T08:28:59.675Z,94.35
2023-01-20T08:29:59.661Z,93.83
2023-01-20T08:30:59.804Z,93.51
2023-01-20T08:31:59.640Z,93.62
2023-01-20T08:32:59.624Z,93.79
2023-01-20T08:33:59.628Z,93.68
2023-01-20T08:34:59.593Z,93.57
2023-01-20T08:35:59.592Z,93.32
2023-01-20T08:36:59.598Z,93.01
2023-01-20T08:37:59.564Z,92.80
2023-01-20T08:38:59.549Z,92.48
2023-01-20T08:39:59.541Z,92.16
2023-01-20T08:40:59.526Z,91.71
2023-01-20T08:41:59.514Z,91.22
2023-01-20T08:42:59.501Z,90.80
2023-01-20T08:43:59.501Z,90.55
2023-01-20T08:44:59.473Z,90.48
2023-01-20T08:45:59.501Z,90.55
2023-01-20T08:46:59.492Z,90.76
2023-01-20T08:47:59.425Z,90.86
2023-01-20T08:48:59.421Z,90.66
2023-01-20T08:49:59.419Z,90.40
2023-01-20T08:50:59.400Z,90.19
2023-01-20T08:51:59.380Z,90.19
2023-01-20T08:52:59.382Z,90.15
2023-01-20T08:53:59.373Z,90.05
2023-01-20T08:54:59.337Z,89.73
2023-01-20T08:55:59.331Z,89.62
2023-01-20T08:56:59.309Z,89.42
2023-01-20T08:57:59.294Z,89.06
2023-01-20T08:58:59.296Z,88.96
2023-01-20T08:59:59.272Z,88.85
2023-01-20T09:00:59.315Z,88.54
2023-01-20T09:01:59.257Z,88.43
2023-01-20T09:02:59.237Z,88.54
2023-01-20T09:04:05.875Z,88.22
2023-01-20T09:05:00.238Z,88.43
2023-01-20T09:05:59.194Z,88.49
2023-01-20T09:06:59.183Z,88.18
2023-01-20T09:07:59.167Z,87.97
2023-01-20T09:08:59.237Z,87.93
2023-01-20T09:09:59.152Z,87.51
2023-01-20T09:10:59.129Z,87.20
2023-01-20T09:11:59.124Z,86.68
2023-01-20T09:12:59.109Z,86.15
2023-01-20T09:13:59.102Z,85.83
2023-01-20T09:14:59.082Z,85.90
2023-01-20T09:15:59.126Z,85.80
2023-01-20T09:16:59.048Z,85.34
2023-01-20T09:17:59.042Z,84.81
2023-01-20T09:18:59.031Z,84.67
2023-01-20T09:19:59.010Z,84.25
2023-01-20T09:20:59.001Z,84.05
2023-01-20T09:21:58.993Z,83.83
2023-01-20T09:22:58.985Z,83.83
2023-01-20T09:23:58.969Z,83.94
2023-01-20T09:24:58.985Z,84.15
2023-01-20T09:25:58.941Z,83.83
2023-01-20T09:26:58.921Z,83.90
2023-01-20T09:27:58.906Z,83.27
2023-01-20T09:28:58.900Z,82.71
2023-01-20T09:29:58.880Z,82.05
2023-01-20T09:30:58.990Z,81.63
2023-01-20T09:31:59.013Z,81.00
2023-01-20T09:32:58.846Z,81.11
2023-01-20T09:33:58.828Z,81.49
2023-01-20T09:34:58.815Z,82.23
2023-01-20T09:35:58.810Z,82.26
2023-01-20T09:36:58.799Z,82.65
2023-01-20T09:37:58.779Z,83.06
2023-01-20T09:38:58.762Z,82.89
2023-01-20T09:39:58.766Z,83.59
2023-01-20T09:40:58.773Z,83.94
2023-01-20T09:41:58.731Z,83.94
2023-01-20T09:42:58.732Z,84.46
2023-01-20T09:43:58.703Z,84.61
2023-01-20T09:44:58.691Z,84.85
2023-01-20T09:45:58.711Z,85.48
2023-01-20T09:46:58.664Z,85.55
2023-01-20T09:47:58.649Z,85.75
2023-01-20T09:48:58.634Z,85.69
2023-01-20T09:49:58.628Z,85.94
2023-01-20T09:50:58.621Z,86.57
2023-01-20T09:51:58.615Z,86.61
2023-01-20T09:52:58.590Z,86.99
2023-01-20T09:53:58.583Z,87.20
2023-01-20T09:54:58.561Z,87.34
2023-01-20T09:55:58.567Z,87.30
2023-01-20T09:56:58.582Z,87.24
2023-01-20T09:57:58.521Z,87.30
2023-01-20T09:58:58.513Z,87.30
2023-01-20T09:59:58.498Z,86.99
2023-01-20T10:00:58.489Z,87.13
2023-01-20T10:01:58.473Z,87.51
2023-01-20T10:02:58.461Z,87.51
2023-01-20T10:03:58.439Z,87.30
2023-01-20T10:04:58.468Z,87.09
2023-01-20T10:05:58.426Z,86.99
2023-01-20T10:06:58.406Z,86.95
2023-01-20T10:07:58.391Z,86.74
2023-01-20T10:09:05.515Z,86.78
2023-01-20T10:09:58.368Z,86.43
2023-01-20T10:10:58.351Z,86.36
2023-01-20T10:11:58.371Z,86.53
2023-01-20T10:12:58.414Z,86.22
2023-01-20T10:13:58.317Z,85.80
2023-01-20T10:14:58.300Z,85.80
2023-01-20T10:15:58.333Z,86.11
2023-01-20T10:16:58.274Z,86.46
2023-01-20T10:17:58.267Z,86.74
2023-01-20T10:18:58.252Z,86.43
2023-01-20T10:19:58.230Z,86.00
2023-01-20T10:20:58.219Z,86.05
2023-01-20T10:21:58.217Z,86.53
2023-01-20T10:22:58.210Z,86.63
2023-01-20T10:23:58.190Z,86.95
2023-01-20T10:24:58.189Z,86.85
2023-01-20T10:25:58.153Z,86.95
2023-01-20T10:26:58.168Z,86.85
2023-01-20T10:27:58.136Z,86.95
2023-01-20T10:28:58.174Z,86.70
2023-01-20T10:29:58.106Z,86.80
2023-01-20T10:30:58.193Z,86.38
2023-01-20T10:31:58.086Z,86.18
2023-01-20T10:32:58.070Z,85.34
2023-01-20T10:33:58.063Z,85.13
2023-01-20T10:34:58.043Z,85.24
2023-01-20T10:35:58.023Z,85.65
2023-01-20T10:36:58.016Z,84.61
2023-01-20T10:37:58.007Z,83.98
2023-01-20T10:38:57.984Z,84.50
2023-01-20T10:39:57.968Z,84.19
2023-01-20T10:40:57.974Z,83.87
2023-01-20T10:41:57.951Z,83.66
2023-01-20T10:42:57.947Z,83.56
2023-01-20T10:43:57.919Z,83.87
2023-01-20T10:44:57.928Z,84.05
2023-01-20T10:45:57.890Z,83.52
2023-01-20T10:46:57.885Z,83.94
2023-01-20T10:47:57.897Z,83.73
2023-01-20T10:48:57.853Z,83.62
2023-01-20T10:49:57.848Z,83.42
2023-01-20T10:50:57.826Z,83.21
2023-01-20T10:51:57.832Z,83.21
2023-01-20T10:52:57.812Z,83.10
2023-01-20T10:53:57.797Z,83.00
2023-01-20T10:54:57.775Z,83.31
2023-01-20T10:55:58.156Z,83.52
2023-01-20T10:56:57.750Z,83.73
2023-01-20T10:57:57.757Z,83.80
2023-01-20T10:58:57.733Z,82.86
2023-01-20T10:59:57.726Z,82.75
2023-01-20T11:00:57.745Z,82.54
2023-01-20T11:02:10.859Z,82.50
2023-01-20T11:02:59.152Z,81.98
2023-01-20T11:03:57.668Z,82.09
2023-01-20T11:04:57.656Z,82.05
2023-01-20T11:05:57.637Z,81.95
2023-01-20T11:06:57.629Z,81.95
2023-01-20T11:07:57.614Z,81.52
2023-01-20T11:08:57.608Z,81.63
2023-01-20T11:09:57.589Z,81.11
2023-01-20T11:10:57.585Z,80.69
2023-01-20T11:11:57.565Z,80.06
2023-01-20T11:12:57.554Z,80.06
2023-01-20T11:13:57.538Z,80.41
2023-01-20T11:14:57.525Z,80.83
2023-01-20T11:15:57.576Z,80.31
2023-01-20T11:16:57.523Z,80.31
2023-01-20T11:17:57.491Z,80.93
2023-01-20T11:18:57.474Z,80.97
2023-01-20T11:19:57.473Z,80.83
2023-01-20T11:20:57.455Z,81.04
2023-01-20T11:21:57.428Z,81.67
2023-01-20T11:22:57.426Z,81.00
2023-01-20T11:23:57.419Z,80.83
2023-01-20T11:24:57.406Z,80.27
2023-01-20T11:25:57.382Z,80.31
2023-01-20T11:26:57.366Z,80.10
2023-01-20T11:27:57.362Z,80.20
2023-01-20T11:28:57.354Z,80.20
2023-01-20T11:29:57.339Z,80.41
2023-01-20T11:30:57.456Z,81.00
2023-01-20T11:31:57.362Z,80.79
2023-01-20T11:32:57.359Z,80.06
2023-01-20T11:33:57.283Z,80.16
2023-01-20T11:34:57.270Z,81.11
2023-01-20T11:35:57.254Z,81.00
2023-01-20T11:36:57.246Z,80.16
2023-01-20T11:37:57.221Z,79.58
2023-01-20T11:38:57.214Z,80.31
2023-01-20T11:39:57.213Z,81.00
2023-01-20T11:40:57.214Z,81.11
2023-01-20T11:41:57.190Z,81.73
2023-01-20T11:42:57.175Z,81.21
2023-01-20T11:43:57.151Z,80.27
2023-01-20T11:45:01.057Z,79.75
2023-01-20T11:45:58.145Z,79.85
2023-01-20T11:46:57.186Z,81.00
2023-01-20T11:47:57.089Z,80.69
2023-01-20T11:48:57.109Z,79.96
2023-01-20T11:49:57.066Z,80.06
2023-01-20T11:50:57.077Z,80.38
2023-01-20T11:51:57.126Z,79.75
2023-01-20T11:52:57.031Z,79.75
2023-01-20T11:53:57.021Z,80.16
2023-01-20T11:54:57.012Z,79.79
2023-01-20T11:55:57.021Z,80.31
2023-01-20T11:56:57.000Z,80.83
2023-01-20T11:57:56.970Z,81.04
2023-01-20T11:58:56.974Z,80.41
2023-01-20T11:59:56.938Z,80.31
2023-01-20T12:00:56.943Z,80.83
2023-01-20T12:01:57.004Z,81.15
2023-01-20T12:02:56.897Z,81.46
2023-01-20T12:03:56.956Z,81.04
2023-01-20T12:04:56.905Z,81.32
2023-01-20T12:05:56.858Z,80.48
2023-01-20T12:06:56.848Z,79.54
2023-01-20T12:07:56.840Z,79.85
2023-01-20T12:08:56.832Z,80.27
2023-01-20T12:09:56.809Z,80.58
2023-01-20T12:10:56.807Z,80.48
2023-01-20T12:11:56.786Z,80.58
2023-01-20T12:12:56.778Z,78.91
2023-01-20T12:13:56.763Z,78.91
2023-01-20T12:14:56.751Z,78.88
2023-01-20T12:15:56.727Z,79.40
2023-01-20T12:16:56.724Z,79.40
2023-01-20T12:17:56.750Z,78.04
2023-01-20T12:19:02.055Z,78.25
2023-01-20T12:19:56.715Z,78.25
2023-01-20T12:20:56.691Z,79.29
2023-01-20T12:21:56.660Z,78.14
2023-01-20T12:22:56.655Z,78.67
2023-01-20T12:23:56.626Z,79.02
2023-01-20T12:24:56.620Z,79.54
2023-01-20T12:25:56.608Z,79.12
2023-01-20T12:26:56.601Z,79.22
2023-01-20T12:27:56.588Z,77.62
2023-01-20T12:28:56.583Z,77.24
2023-01-20T12:29:56.571Z,77.10
2023-01-20T12:30:56.566Z,76.72
2023-01-20T12:31:56.568Z,77.76
2023-01-20T12:32:56.509Z,78.14
2023-01-20T12:33:56.499Z,77.45
2023-01-20T12:34:56.510Z,76.89
2023-01-20T12:35:56.482Z,76.26
2023-01-20T12:36:56.614Z,76.79
2023-01-20T12:37:56.460Z,76.16
2023-01-20T12:38:56.456Z,75.85
2023-01-20T12:39:56.435Z,75.95
2023-01-20T12:40:56.407Z,76.68
2023-01-20T12:41:56.399Z,77.31
2023-01-20T12:42:56.397Z,77.31
2023-01-20T12:43:56.379Z,77.62
2023-01-20T12:44:56.370Z,77.51
2023-01-20T12:45:56.366Z,75.63
2023-01-20T12:46:56.330Z,74.69
2023-01-20T12:47:56.324Z,74.59
2023-01-20T12:48:56.312Z,74.59
2023-01-20T12:49:56.314Z,75.57
2023-01-20T12:50:56.321Z,75.74
2023-01-20T12:51:56.276Z,75.95